sensor_id;sensor_type;location;lat;lon;timestamp;temperature;humidity
7516;DHT22;3799;47.184;8.538;2024-02-14T00:00:25;6.00;99.90
7516;DHT22;3799;47.184;8.538;2024-02-14T00:02:52;5.90;99.90
7516;DHT22;3799;47.184;8.538;2024-02-14T00:05:20;6.10;99.90
7516;DHT22;3799;47.184;8.538;2024-02-14T00:07:47;6.00;99.90
7516;DHT22;3799;47.184;8.538;2024-02-14T00:10:17;6.10;99.90
7516;DHT22;3799;47.184;8.538;2024-02-14T00:12:45;6.20;99.90
7516;DHT22;3799;47.184;8.538;2024-02-14T00:15:21;6.00;99.90
7516;DHT22;3799;47.184;8.538;2024-02-14T00:17:48;6.20;99.90
7516;DHT22;3799;47.184;8.538;2024-02-14T00:20:16;6.20;99.90
7516;DHT22;3799;47.184;8.538;2024-02-14T00:22:44;6.00;99.90
7516;DHT22;3799;47.184;8.538;2024-02-14T00:25:11;5.80;99.90
7516;DHT22;3799;47.184;8.538;2024-02-14T00:27:40;5.90;99.90
7516;DHT22;3799;47.184;8.538;2024-02-14T00:30:14;5.60;99.90
7516;DHT22;3799;47.184;8.538;2024-02-14T00:32:41;5.70;99.90
7516;DHT22;3799;47.184;8.538;2024-02-14T00:35:09;5.60;99.90
7516;DHT22;3799;47.184;8.538;2024-02-14T00:37:37;5.40;99.90
7516;DHT22;3799;47.184;8.538;2024-02-14T00:40:06;5.50;99.90
7516;DHT22;3799;47.184;8.538;2024-02-14T00:42:37;5.30;99.90
7516;DHT22;3799;47.184;8.538;2024-02-14T00:45:05;5.50;99.90
7516;DHT22;3799;47.184;8.538;2024-02-14T00:47:42;5.30;99.90
7516;DHT22;3799;47.184;8.538;2024-02-14T00:50:10;5.50;99.90
7516;DHT22;3799;47.184;8.538;2024-02-14T00:52:41;5.40;99.90
7516;DHT22;3799;47.184;8.538;2024-02-14T00:55:09;5.30;99.90
7516;DHT22;3799;47.184;8.538;2024-02-14T00:57:36;5.40;99.90
7516;DHT22;3799;47.184;8.538;2024-02-14T01:00:04;5.40;99.90
7516;DHT22;3799;47.184;8.538;2024-02-14T01:02:33;5.40;99.90
7516;DHT22;3799;47.184;8.538;2024-02-14T01:05:01;5.30;99.90
7516;DHT22;3799;47.184;8.538;2024-02-14T01:07:32;5.30;99.90
7516;DHT22;3799;47.184;8.538;2024-02-14T01:09:59;5.10;99.90
7516;DHT22;3799;47.184;8.538;2024-02-14T01:12:27;5.10;99.90
7516;DHT22;3799;47.184;8.538;2024-02-14T01:14:56;5.10;99.90
7516;DHT22;3799;47.184;8.538;2024-02-14T01:17:26;5.30;99.90
7516;DHT22;3799;47.184;8.538;2024-02-14T01:19:57;5.20;99.90
7516;DHT22;3799;47.184;8.538;2024-02-14T01:22:25;5.30;99.90
7516;DHT22;3799;47.184;8.538;2024-02-14T01:24:58;5.10;99.90
7516;DHT22;3799;47.184;8.538;2024-02-14T01:27:26;5.30;99.90
7516;DHT22;3799;47.184;8.538;2024-02-14T01:29:56;5.50;99.90
7516;DHT22;3799;47.184;8.538;2024-02-14T01:32:27;5.50;99.90
7516;DHT22;3799;47.184;8.538;2024-02-14T01:35:05;5.30;99.90
7516;DHT22;3799;47.184;8.538;2024-02-14T01:37:33;5.40;99.90
7516;DHT22;3799;47.184;8.538;2024-02-14T01:40:00;5.50;99.90
7516;DHT22;3799;47.184;8.538;2024-02-14T01:42:28;5.40;99.90
7516;DHT22;3799;47.184;8.538;2024-02-14T01:44:58;5.40;99.90
7516;DHT22;3799;47.184;8.538;2024-02-14T01:47:26;5.50;99.90
7516;DHT22;3799;47.184;8.538;2024-02-14T01:49:54;5.60;99.90
7516;DHT22;3799;47.184;8.538;2024-02-14T01:52:24;5.50;99.90
7516;DHT22;3799;47.184;8.538;2024-02-14T01:54:58;5.50;99.90
7516;DHT22;3799;47.184;8.538;2024-02-14T01:57:26;5.60;99.90
7516;DHT22;3799;47.184;8.538;2024-02-14T01:59:59;5.40;99.90
7516;DHT22;3799;47.184;8.538;2024-02-14T02:02:31;5.50;99.90
7516;DHT22;3799;47.184;8.538;2024-02-14T02:04:59;5.60;99.90
7516;DHT22;3799;47.184;8.538;2024-02-14T02:07:26;5.50;99.90
7516;DHT22;3799;47.184;8.538;2024-02-14T02:09:54;5.40;99.90
7516;DHT22;3799;47.184;8.538;2024-02-14T02:12:27;5.50;99.90
7516;DHT22;3799;47.184;8.538;2024-02-14T02:14:56;5.50;99.90
7516;DHT22;3799;47.184;8.538;2024-02-14T02:17:24;5.30;99.90
7516;DHT22;3799;47.184;8.538;2024-02-14T02:19:57;5.40;99.90
7516;DHT22;3799;47.184;8.538;2024-02-14T02:22:25;5.40;99.90
7516;DHT22;3799;47.184;8.538;2024-02-14T02:24:52;5.20;99.90
7516;DHT22;3799;47.184;8.538;2024-02-14T02:27:32;5.20;99.90
7516;DHT22;3799;47.184;8.538;2024-02-14T02:30:05;5.30;99.90
7516;DHT22;3799;47.184;8.538;2024-02-14T02:32:33;5.00;99.90
7516;DHT22;3799;47.184;8.538;2024-02-14T02:35:08;5.20;99.90
7516;DHT22;3799;47.184;8.538;2024-02-14T02:37:36;5.10;99.90
7516;DHT22;3799;47.184;8.538;2024-02-14T02:40:04;5.00;99.90
7516;DHT22;3799;47.184;8.538;2024-02-14T02:42:32;5.00;99.90
7516;DHT22;3799;47.184;8.538;2024-02-14T02:45:09;4.90;99.90
7516;DHT22;3799;47.184;8.538;2024-02-14T02:47:44;5.10;99.90
7516;DHT22;3799;47.184;8.538;2024-02-14T02:50:12;5.10;99.90
7516;DHT22;3799;47.184;8.538;2024-02-14T02:52:39;5.20;99.90
7516;DHT22;3799;47.184;8.538;2024-02-14T02:55:09;5.20;99.90
7516;DHT22;3799;47.184;8.538;2024-02-14T02:57:41;5.40;99.90
7516;DHT22;3799;47.184;8.538;2024-02-14T03:00:12;5.20;99.90
7516;DHT22;3799;47.184;8.538;2024-02-14T03:02:47;5.50;99.90
7516;DHT22;3799;47.184;8.538;2024-02-14T03:05:16;5.50;99.90
7516;DHT22;3799;47.184;8.538;2024-02-14T03:07:47;5.40;99.90
7516;DHT22;3799;47.184;8.538;2024-02-14T03:10:21;5.60;99.90
7516;DHT22;3799;47.184;8.538;2024-02-14T03:12:49;5.60;99.90
7516;DHT22;3799;47.184;8.538;2024-02-14T03:15:17;5.60;99.90
7516;DHT22;3799;47.184;8.538;2024-02-14T03:17:45;5.80;99.90
7516;DHT22;3799;47.184;8.538;2024-02-14T03:20:13;5.60;99.90
7516;DHT22;3799;47.184;8.538;2024-02-14T03:22:44;5.80;99.90
7516;DHT22;3799;47.184;8.538;2024-02-14T03:25:22;5.80;99.90
7516;DHT22;3799;47.184;8.538;2024-02-14T03:27:50;5.60;99.90
7516;DHT22;3799;47.184;8.538;2024-02-14T03:30:20;5.90;99.90
7516;DHT22;3799;47.184;8.538;2024-02-14T03:32:49;5.80;99.90
7516;DHT22;3799;47.184;8.538;2024-02-14T03:35:17;5.60;99.90
7516;DHT22;3799;47.184;8.538;2024-02-14T03:37:48;5.80;99.90
7516;DHT22;3799;47.184;8.538;2024-02-14T03:40:16;5.60;99.90
7516;DHT22;3799;47.184;8.538;2024-02-14T03:42:52;5.70;99.90
7516;DHT22;3799;47.184;8.538;2024-02-14T03:45:20;5.50;99.90
7516;DHT22;3799;47.184;8.538;2024-02-14T03:47:48;5.80;99.90
7516;DHT22;3799;47.184;8.538;2024-02-14T03:50:17;5.60;99.90
7516;DHT22;3799;47.184;8.538;2024-02-14T03:52:45;5.90;99.90
7516;DHT22;3799;47.184;8.538;2024-02-14T03:55:13;5.90;99.90
7516;DHT22;3799;47.184;8.538;2024-02-14T03:57:41;5.80;99.90
7516;DHT22;3799;47.184;8.538;2024-02-14T04:00:09;6.10;99.90
7516;DHT22;3799;47.184;8.538;2024-02-14T04:02:38;5.90;99.90
7516;DHT22;3799;47.184;8.538;2024-02-14T04:05:07;6.00;99.90
7516;DHT22;3799;47.184;8.538;2024-02-14T04:07:35;5.80;99.90
7516;DHT22;3799;47.184;8.538;2024-02-14T04:10:05;5.80;99.90
7516;DHT22;3799;47.184;8.538;2024-02-14T04:12:32;5.70;99.90
7516;DHT22;3799;47.184;8.538;2024-02-14T04:15:00;6.00;99.90
7516;DHT22;3799;47.184;8.538;2024-02-14T04:17:27;5.80;99.90
7516;DHT22;3799;47.184;8.538;2024-02-14T04:19:55;6.10;99.90
7516;DHT22;3799;47.184;8.538;2024-02-14T04:22:22;5.90;99.90
7516;DHT22;3799;47.184;8.538;2024-02-14T04:24:49;5.80;99.90
7516;DHT22;3799;47.184;8.538;2024-02-14T04:27:16;6.20;99.90
7516;DHT22;3799;47.184;8.538;2024-02-14T04:29:47;5.80;99.90
7516;DHT22;3799;47.184;8.538;2024-02-14T04:32:15;5.80;99.90
7516;DHT22;3799;47.184;8.538;2024-02-14T04:34:53;6.20;99.90
7516;DHT22;3799;47.184;8.538;2024-02-14T04:37:21;6.10;99.90
7516;DHT22;3799;47.184;8.538;2024-02-14T04:39:48;6.00;99.90
7516;DHT22;3799;47.184;8.538;2024-02-14T04:42:19;5.90;99.90
7516;DHT22;3799;47.184;8.538;2024-02-14T04:44:46;6.00;99.90
7516;DHT22;3799;47.184;8.538;2024-02-14T04:47:13;5.90;99.90
7516;DHT22;3799;47.184;8.538;2024-02-14T04:49:41;6.10;99.90
7516;DHT22;3799;47.184;8.538;2024-02-14T04:52:09;6.10;99.90
7516;DHT22;3799;47.184;8.538;2024-02-14T04:54:36;6.00;99.90
7516;DHT22;3799;47.184;8.538;2024-02-14T04:57:04;5.90;99.90
7516;DHT22;3799;47.184;8.538;2024-02-14T04:59:35;6.00;99.90
7516;DHT22;3799;47.184;8.538;2024-02-14T05:02:02;5.90;99.90
7516;DHT22;3799;47.184;8.538;2024-02-14T05:04:35;5.90;99.90
7516;DHT22;3799;47.184;8.538;2024-02-14T05:07:05;6.00;99.90
7516;DHT22;3799;47.184;8.538;2024-02-14T05:09:32;5.70;99.90
7516;DHT22;3799;47.184;8.538;2024-02-14T05:12:00;5.80;99.90
7516;DHT22;3799;47.184;8.538;2024-02-14T05:14:31;5.80;99.90
7516;DHT22;3799;47.184;8.538;2024-02-14T05:17:02;5.90;99.90
7516;DHT22;3799;47.184;8.538;2024-02-14T05:19:46;5.70;99.90
7516;DHT22;3799;47.184;8.538;2024-02-14T05:22:15;5.80;99.90
7516;DHT22;3799;47.184;8.538;2024-02-14T05:24:43;5.80;99.90
7516;DHT22;3799;47.184;8.538;2024-02-14T05:27:12;5.80;99.90
7516;DHT22;3799;47.184;8.538;2024-02-14T05:29:40;5.60;99.90
7516;DHT22;3799;47.184;8.538;2024-02-14T05:32:13;5.70;99.90
7516;DHT22;3799;47.184;8.538;2024-02-14T05:34:42;5.90;99.90
7516;DHT22;3799;47.184;8.538;2024-02-14T05:37:16;5.90;99.90
7516;DHT22;3799;47.184;8.538;2024-02-14T05:39:43;6.00;99.90
7516;DHT22;3799;47.184;8.538;2024-02-14T05:42:11;5.80;99.90
7516;DHT22;3799;47.184;8.538;2024-02-14T05:44:42;5.80;99.90
7516;DHT22;3799;47.184;8.538;2024-02-14T05:47:10;5.90;99.90
7516;DHT22;3799;47.184;8.538;2024-02-14T05:49:40;5.90;99.90
7516;DHT22;3799;47.184;8.538;2024-02-14T05:52:08;6.00;99.90
7516;DHT22;3799;47.184;8.538;2024-02-14T05:54:35;6.00;99.90
7516;DHT22;3799;47.184;8.538;2024-02-14T05:57:06;6.00;99.90
7516;DHT22;3799;47.184;8.538;2024-02-14T05:59:34;5.90;99.90
7516;DHT22;3799;47.184;8.538;2024-02-14T06:02:05;5.90;99.90
7516;DHT22;3799;47.184;8.538;2024-02-14T06:04:33;5.90;99.90
7516;DHT22;3799;47.184;8.538;2024-02-14T06:07:00;5.90;99.90
7516;DHT22;3799;47.184;8.538;2024-02-14T06:09:31;5.80;99.90
7516;DHT22;3799;47.184;8.538;2024-02-14T06:11:59;5.70;99.90
7516;DHT22;3799;47.184;8.538;2024-02-14T06:14:30;5.90;99.90
7516;DHT22;3799;47.184;8.538;2024-02-14T06:17:09;5.90;99.90
7516;DHT22;3799;47.184;8.538;2024-02-14T06:19:37;5.70;99.90
7516;DHT22;3799;47.184;8.538;2024-02-14T06:22:06;5.70;99.90
7516;DHT22;3799;47.184;8.538;2024-02-14T06:24:36;5.90;99.90
7516;DHT22;3799;47.184;8.538;2024-02-14T06:27:03;5.60;99.90
7516;DHT22;3799;47.184;8.538;2024-02-14T06:29:31;5.50;99.90
7516;DHT22;3799;47.184;8.538;2024-02-14T06:31:58;5.60;99.90
7516;DHT22;3799;47.184;8.538;2024-02-14T06:34:26;5.60;99.90
7516;DHT22;3799;47.184;8.538;2024-02-14T06:36:55;5.50;99.90
7516;DHT22;3799;47.184;8.538;2024-02-14T06:39:26;5.70;99.90
7516;DHT22;3799;47.184;8.538;2024-02-14T06:41:53;5.70;99.90
7516;DHT22;3799;47.184;8.538;2024-02-14T06:44:24;5.50;99.90
7516;DHT22;3799;47.184;8.538;2024-02-14T06:46:53;5.80;99.90
7516;DHT22;3799;47.184;8.538;2024-02-14T06:49:22;5.80;99.90
7516;DHT22;3799;47.184;8.538;2024-02-14T06:51:50;5.90;99.90
7516;DHT22;3799;47.184;8.538;2024-02-14T06:54:19;6.10;99.90
7516;DHT22;3799;47.184;8.538;2024-02-14T06:56:46;5.90;99.90
7516;DHT22;3799;47.184;8.538;2024-02-14T06:59:15;6.20;99.90
7516;DHT22;3799;47.184;8.538;2024-02-14T07:01:49;6.00;99.90
7516;DHT22;3799;47.184;8.538;2024-02-14T07:04:17;6.30;99.90
7516;DHT22;3799;47.184;8.538;2024-02-14T07:07:01;6.30;99.90
7516;DHT22;3799;47.184;8.538;2024-02-14T07:09:35;6.30;99.90
7516;DHT22;3799;47.184;8.538;2024-02-14T07:12:04;6.50;99.90
7516;DHT22;3799;47.184;8.538;2024-02-14T07:14:31;6.60;99.90
7516;DHT22;3799;47.184;8.538;2024-02-14T07:16:59;6.50;99.90
7516;DHT22;3799;47.184;8.538;2024-02-14T07:19:33;6.70;99.90
7516;DHT22;3799;47.184;8.538;2024-02-14T07:22:01;6.50;99.90
7516;DHT22;3799;47.184;8.538;2024-02-14T07:24:28;6.70;99.90
7516;DHT22;3799;47.184;8.538;2024-02-14T07:26:55;6.70;99.90
7516;DHT22;3799;47.184;8.538;2024-02-14T07:29:24;6.70;99.90
7516;DHT22;3799;47.184;8.538;2024-02-14T07:31:52;7.00;99.90
7516;DHT22;3799;47.184;8.538;2024-02-14T07:34:19;7.00;99.90
7516;DHT22;3799;47.184;8.538;2024-02-14T07:36:47;6.80;99.90
7516;DHT22;3799;47.184;8.538;2024-02-14T07:39:14;6.80;99.90
7516;DHT22;3799;47.184;8.538;2024-02-14T07:41:41;7.10;99.90
7516;DHT22;3799;47.184;8.538;2024-02-14T07:44:09;7.10;99.90
7516;DHT22;3799;47.184;8.538;2024-02-14T07:46:36;7.00;99.90
7516;DHT22;3799;47.184;8.538;2024-02-14T07:49:07;7.00;99.90
7516;DHT22;3799;47.184;8.538;2024-02-14T07:51:36;7.20;99.90
7516;DHT22;3799;47.184;8.538;2024-02-14T07:54:05;7.30;99.90
7516;DHT22;3799;47.184;8.538;2024-02-14T07:56:35;7.30;99.90
7516;DHT22;3799;47.184;8.538;2024-02-14T07:59:03;7.20;99.90
7516;DHT22;3799;47.184;8.538;2024-02-14T08:01:32;7.10;99.90
7516;DHT22;3799;47.184;8.538;2024-02-14T08:03:59;7.50;99.90
7516;DHT22;3799;47.184;8.538;2024-02-14T08:06:27;7.40;99.90
7516;DHT22;3799;47.184;8.538;2024-02-14T08:08:57;7.40;99.90
7516;DHT22;3799;47.184;8.538;2024-02-14T08:11:29;7.50;99.90
7516;DHT22;3799;47.184;8.538;2024-02-14T08:13:57;7.50;99.90
7516;DHT22;3799;47.184;8.538;2024-02-14T08:16:25;7.70;99.90
7516;DHT22;3799;47.184;8.538;2024-02-14T08:18:52;7.60;99.90
7516;DHT22;3799;47.184;8.538;2024-02-14T08:21:29;7.70;99.90
7516;DHT22;3799;47.184;8.538;2024-02-14T08:24:05;7.60;99.90
7516;DHT22;3799;47.184;8.538;2024-02-14T08:26:36;7.70;99.90
7516;DHT22;3799;47.184;8.538;2024-02-14T08:29:03;7.80;99.90
7516;DHT22;3799;47.184;8.538;2024-02-14T08:31:31;8.00;99.90
7516;DHT22;3799;47.184;8.538;2024-02-14T08:33:59;8.00;99.90
7516;DHT22;3799;47.184;8.538;2024-02-14T08:36:27;8.00;99.90
7516;DHT22;3799;47.184;8.538;2024-02-14T08:38:55;7.80;99.90
7516;DHT22;3799;47.184;8.538;2024-02-14T08:41:22;8.10;99.90
7516;DHT22;3799;47.184;8.538;2024-02-14T08:43:50;7.90;99.90
7516;DHT22;3799;47.184;8.538;2024-02-14T08:46:18;8.00;99.90
7516;DHT22;3799;47.184;8.538;2024-02-14T08:48:47;8.20;99.90
7516;DHT22;3799;47.184;8.538;2024-02-14T08:51:16;8.20;99.90
7516;DHT22;3799;47.184;8.538;2024-02-14T08:53:48;8.20;99.90
7516;DHT22;3799;47.184;8.538;2024-02-14T08:56:16;8.50;99.90
7516;DHT22;3799;47.184;8.538;2024-02-14T08:58:49;8.70;99.90
7516;DHT22;3799;47.184;8.538;2024-02-14T09:01:17;8.50;99.90
7516;DHT22;3799;47.184;8.538;2024-02-14T09:03:45;8.60;99.90
7516;DHT22;3799;47.184;8.538;2024-02-14T09:06:17;8.80;99.90
7516;DHT22;3799;47.184;8.538;2024-02-14T09:08:49;8.70;99.90
7516;DHT22;3799;47.184;8.538;2024-02-14T09:11:18;8.70;99.90
7516;DHT22;3799;47.184;8.538;2024-02-14T09:13:52;9.10;99.90
7516;DHT22;3799;47.184;8.538;2024-02-14T09:16:23;9.00;99.40
7516;DHT22;3799;47.184;8.538;2024-02-14T09:18:51;9.20;99.10
7516;DHT22;3799;47.184;8.538;2024-02-14T09:21:22;9.30;98.90
7516;DHT22;3799;47.184;8.538;2024-02-14T09:23:54;9.50;98.50
7516;DHT22;3799;47.184;8.538;2024-02-14T09:26:22;9.50;98.00
7516;DHT22;3799;47.184;8.538;2024-02-14T09:28:51;9.50;97.80
7516;DHT22;3799;47.184;8.538;2024-02-14T09:31:22;9.70;98.40
7516;DHT22;3799;47.184;8.538;2024-02-14T09:33:51;9.50;98.60
7516;DHT22;3799;47.184;8.538;2024-02-14T09:36:26;9.80;98.90
7516;DHT22;3799;47.184;8.538;2024-02-14T09:38:55;10.00;98.00
7516;DHT22;3799;47.184;8.538;2024-02-14T09:41:46;10.00;97.50
7516;DHT22;3799;47.184;8.538;2024-02-14T09:44:16;10.00;97.20
7516;DHT22;3799;47.184;8.538;2024-02-14T09:46:45;10.10;97.10
7516;DHT22;3799;47.184;8.538;2024-02-14T09:49:14;10.00;96.90
7516;DHT22;3799;47.184;8.538;2024-02-14T09:51:48;10.10;96.70
7516;DHT22;3799;47.184;8.538;2024-02-14T09:54:19;10.20;96.60
7516;DHT22;3799;47.184;8.538;2024-02-14T09:56:50;10.30;96.20
7516;DHT22;3799;47.184;8.538;2024-02-14T09:59:24;10.20;95.70
7516;DHT22;3799;47.184;8.538;2024-02-14T10:01:52;10.30;95.60
7516;DHT22;3799;47.184;8.538;2024-02-14T10:04:19;10.50;95.40
7516;DHT22;3799;47.184;8.538;2024-02-14T10:06:54;10.40;95.00
7516;DHT22;3799;47.184;8.538;2024-02-14T10:09:22;10.50;94.50
7516;DHT22;3799;47.184;8.538;2024-02-14T10:11:51;10.50;94.00
7516;DHT22;3799;47.184;8.538;2024-02-14T10:14:19;10.70;94.40
7516;DHT22;3799;47.184;8.538;2024-02-14T10:16:49;10.90;94.00
7516;DHT22;3799;47.184;8.538;2024-02-14T10:19:17;10.80;93.50
7516;DHT22;3799;47.184;8.538;2024-02-14T10:21:59;11.10;92.90
7516;DHT22;3799;47.184;8.538;2024-02-14T10:24:28;11.20;92.10
7516;DHT22;3799;47.184;8.538;2024-02-14T10:27:02;11.40;91.80
7516;DHT22;3799;47.184;8.538;2024-02-14T10:29:32;11.10;91.30
7516;DHT22;3799;47.184;8.538;2024-02-14T10:32:01;11.30;91.80
7516;DHT22;3799;47.184;8.538;2024-02-14T10:34:29;11.00;91.40
7516;DHT22;3799;47.184;8.538;2024-02-14T10:37:03;11.10;91.40
7516;DHT22;3799;47.184;8.538;2024-02-14T10:39:32;11.30;91.60
7516;DHT22;3799;47.184;8.538;2024-02-14T10:42:02;11.50;91.40
7516;DHT22;3799;47.184;8.538;2024-02-14T10:44:31;11.60;91.00
7516;DHT22;3799;47.184;8.538;2024-02-14T10:47:02;11.70;90.50
7516;DHT22;3799;47.184;8.538;2024-02-14T10:49:35;11.70;88.80
7516;DHT22;3799;47.184;8.538;2024-02-14T10:52:06;11.70;86.10
7516;DHT22;3799;47.184;8.538;2024-02-14T10:54:36;12.00;84.80
7516;DHT22;3799;47.184;8.538;2024-02-14T10:57:08;12.00;83.10
7516;DHT22;3799;47.184;8.538;2024-02-14T10:59:43;12.00;80.60
7516;DHT22;3799;47.184;8.538;2024-02-14T11:02:12;12.30;78.50
7516;DHT22;3799;47.184;8.538;2024-02-14T11:04:40;12.40;76.30
7516;DHT22;3799;47.184;8.538;2024-02-14T11:07:11;12.30;74.60
7516;DHT22;3799;47.184;8.538;2024-02-14T11:09:40;12.30;73.30
7516;DHT22;3799;47.184;8.538;2024-02-14T11:12:09;12.70;72.20
7516;DHT22;3799;47.184;8.538;2024-02-14T11:14:42;12.80;67.50
7516;DHT22;3799;47.184;8.538;2024-02-14T11:17:14;12.80;65.50
7516;DHT22;3799;47.184;8.538;2024-02-14T11:19:42;12.80;65.10
7516;DHT22;3799;47.184;8.538;2024-02-14T11:22:18;13.20;63.00
7516;DHT22;3799;47.184;8.538;2024-02-14T11:24:47;13.20;61.20
7516;DHT22;3799;47.184;8.538;2024-02-14T11:27:17;13.40;59.30
7516;DHT22;3799;47.184;8.538;2024-02-14T11:30:00;13.50;56.50
7516;DHT22;3799;47.184;8.538;2024-02-14T11:32:28;13.70;54.30
7516;DHT22;3799;47.184;8.538;2024-02-14T11:35:00;13.90;52.30
7516;DHT22;3799;47.184;8.538;2024-02-14T11:37:30;13.90;51.20
7516;DHT22;3799;47.184;8.538;2024-02-14T11:40:02;14.30;50.30
7516;DHT22;3799;47.184;8.538;2024-02-14T11:42:31;14.50;49.20
7516;DHT22;3799;47.184;8.538;2024-02-14T11:45:00;14.40;47.80
7516;DHT22;3799;47.184;8.538;2024-02-14T11:47:28;14.80;46.70
7516;DHT22;3799;47.184;8.538;2024-02-14T11:50:00;14.40;45.90
7516;DHT22;3799;47.184;8.538;2024-02-14T11:52:27;14.70;46.20
7516;DHT22;3799;47.184;8.538;2024-02-14T11:54:55;14.80;46.20
7516;DHT22;3799;47.184;8.538;2024-02-14T11:57:25;14.70;46.00
7516;DHT22;3799;47.184;8.538;2024-02-14T11:59:53;14.70;45.90
7516;DHT22;3799;47.184;8.538;2024-02-14T12:02:21;14.50;45.30
7516;DHT22;3799;47.184;8.538;2024-02-14T12:04:49;14.70;45.40
7516;DHT22;3799;47.184;8.538;2024-02-14T12:07:23;14.90;45.40
7516;DHT22;3799;47.184;8.538;2024-02-14T12:09:55;14.80;44.80
7516;DHT22;3799;47.184;8.538;2024-02-14T12:12:23;14.90;44.40
7516;DHT22;3799;47.184;8.538;2024-02-14T12:14:54;14.60;44.20
7516;DHT22;3799;47.184;8.538;2024-02-14T12:17:22;15.00;44.40
7516;DHT22;3799;47.184;8.538;2024-02-14T12:19:49;15.10;44.30
7516;DHT22;3799;47.184;8.538;2024-02-14T12:22:17;15.00;44.40
7516;DHT22;3799;47.184;8.538;2024-02-14T12:24:46;15.00;44.70
7516;DHT22;3799;47.184;8.538;2024-02-14T12:27:18;15.20;44.50
7516;DHT22;3799;47.184;8.538;2024-02-14T12:29:51;15.20;44.60
7516;DHT22;3799;47.184;8.538;2024-02-14T12:32:20;15.50;44.60
7516;DHT22;3799;47.184;8.538;2024-02-14T12:34:47;15.70;44.10
7516;DHT22;3799;47.184;8.538;2024-02-14T12:37:16;16.00;43.30
7516;DHT22;3799;47.184;8.538;2024-02-14T12:39:44;16.30;43.20
7516;DHT22;3799;47.184;8.538;2024-02-14T12:42:12;16.40;43.20
7516;DHT22;3799;47.184;8.538;2024-02-14T12:44:41;16.40;42.90
7516;DHT22;3799;47.184;8.538;2024-02-14T12:47:08;16.50;42.80
7516;DHT22;3799;47.184;8.538;2024-02-14T12:49:36;16.50;42.90
7516;DHT22;3799;47.184;8.538;2024-02-14T12:52:04;16.60;42.30
7516;DHT22;3799;47.184;8.538;2024-02-14T12:54:32;16.60;41.90
7516;DHT22;3799;47.184;8.538;2024-02-14T12:57:00;16.60;41.50
7516;DHT22;3799;47.184;8.538;2024-02-14T12:59:28;16.50;41.40
7516;DHT22;3799;47.184;8.538;2024-02-14T13:01:56;16.40;41.30
7516;DHT22;3799;47.184;8.538;2024-02-14T13:04:24;16.30;41.70
7516;DHT22;3799;47.184;8.538;2024-02-14T13:06:52;16.20;41.90
7516;DHT22;3799;47.184;8.538;2024-02-14T13:09:21;16.10;41.80
7516;DHT22;3799;47.184;8.538;2024-02-14T13:11:49;16.10;41.90
7516;DHT22;3799;47.184;8.538;2024-02-14T13:14:17;16.00;41.80
7516;DHT22;3799;47.184;8.538;2024-02-14T13:16:45;16.00;42.00
7516;DHT22;3799;47.184;8.538;2024-02-14T13:19:12;15.90;42.10
7516;DHT22;3799;47.184;8.538;2024-02-14T13:21:44;16.00;42.20
7516;DHT22;3799;47.184;8.538;2024-02-14T13:24:13;16.10;42.10
7516;DHT22;3799;47.184;8.538;2024-02-14T13:26:41;16.10;42.00
7516;DHT22;3799;47.184;8.538;2024-02-14T13:29:08;16.10;42.10
7516;DHT22;3799;47.184;8.538;2024-02-14T13:31:36;16.20;42.20
7516;DHT22;3799;47.184;8.538;2024-02-14T13:34:04;15.70;42.20
7516;DHT22;3799;47.184;8.538;2024-02-14T13:36:31;16.10;42.70
7516;DHT22;3799;47.184;8.538;2024-02-14T13:38:59;16.10;42.80
7516;DHT22;3799;47.184;8.538;2024-02-14T13:41:27;16.20;42.90
7516;DHT22;3799;47.184;8.538;2024-02-14T13:43:56;16.30;43.40
7516;DHT22;3799;47.184;8.538;2024-02-14T13:46:24;16.40;43.90
7516;DHT22;3799;47.184;8.538;2024-02-14T13:48:53;16.50;44.30
7516;DHT22;3799;47.184;8.538;2024-02-14T13:51:21;16.80;44.10
7516;DHT22;3799;47.184;8.538;2024-02-14T13:53:51;16.90;43.60
7516;DHT22;3799;47.184;8.538;2024-02-14T13:56:19;16.90;43.30
7516;DHT22;3799;47.184;8.538;2024-02-14T13:58:50;16.90;43.30
7516;DHT22;3799;47.184;8.538;2024-02-14T14:01:18;16.90;43.40
7516;DHT22;3799;47.184;8.538;2024-02-14T14:03:47;16.80;43.50
7516;DHT22;3799;47.184;8.538;2024-02-14T14:06:17;16.70;43.70
7516;DHT22;3799;47.184;8.538;2024-02-14T14:08:46;16.50;44.10
7516;DHT22;3799;47.184;8.538;2024-02-14T14:11:17;16.30;44.40
7516;DHT22;3799;47.184;8.538;2024-02-14T14:13:46;16.10;44.80
7516;DHT22;3799;47.184;8.538;2024-02-14T14:16:15;16.00;45.30
7516;DHT22;3799;47.184;8.538;2024-02-14T14:18:43;15.80;45.20
7516;DHT22;3799;47.184;8.538;2024-02-14T14:21:11;15.90;45.20
7516;DHT22;3799;47.184;8.538;2024-02-14T14:23:39;15.60;45.00
7516;DHT22;3799;47.184;8.538;2024-02-14T14:26:08;15.40;45.40
7516;DHT22;3799;47.184;8.538;2024-02-14T14:28:36;15.60;46.20
7516;DHT22;3799;47.184;8.538;2024-02-14T14:31:03;15.10;46.00
7516;DHT22;3799;47.184;8.538;2024-02-14T14:33:30;15.10;45.80
7516;DHT22;3799;47.184;8.538;2024-02-14T14:35:59;15.00;46.00
7516;DHT22;3799;47.184;8.538;2024-02-14T14:38:27;15.00;46.60
7516;DHT22;3799;47.184;8.538;2024-02-14T14:40:54;14.90;47.00
7516;DHT22;3799;47.184;8.538;2024-02-14T14:43:22;14.90;47.80
7516;DHT22;3799;47.184;8.538;2024-02-14T14:45:51;14.70;48.20
7516;DHT22;3799;47.184;8.538;2024-02-14T14:48:20;14.60;48.00
7516;DHT22;3799;47.184;8.538;2024-02-14T14:50:53;14.50;47.80
7516;DHT22;3799;47.184;8.538;2024-02-14T14:53:21;14.80;48.40
7516;DHT22;3799;47.184;8.538;2024-02-14T14:55:56;14.60;48.80
7516;DHT22;3799;47.184;8.538;2024-02-14T14:58:25;14.40;49.10
7516;DHT22;3799;47.184;8.538;2024-02-14T15:00:56;14.40;49.90
7516;DHT22;3799;47.184;8.538;2024-02-14T15:03:23;14.40;50.80
7516;DHT22;3799;47.184;8.538;2024-02-14T15:05:52;14.40;51.20
7516;DHT22;3799;47.184;8.538;2024-02-14T15:08:21;14.20;51.20
7516;DHT22;3799;47.184;8.538;2024-02-14T15:10:56;14.10;51.80
7516;DHT22;3799;47.184;8.538;2024-02-14T15:13:25;14.20;52.50
7516;DHT22;3799;47.184;8.538;2024-02-14T15:15:52;13.80;52.50
7516;DHT22;3799;47.184;8.538;2024-02-14T15:18:20;13.90;52.70
7516;DHT22;3799;47.184;8.538;2024-02-14T15:20:51;13.70;52.80
7516;DHT22;3799;47.184;8.538;2024-02-14T15:23:18;13.70;52.70
7516;DHT22;3799;47.184;8.538;2024-02-14T15:25:45;13.60;52.70
7516;DHT22;3799;47.184;8.538;2024-02-14T15:28:14;13.70;53.20
7516;DHT22;3799;47.184;8.538;2024-02-14T15:30:49;13.70;54.30
7516;DHT22;3799;47.184;8.538;2024-02-14T15:33:35;13.50;55.40
7516;DHT22;3799;47.184;8.538;2024-02-14T15:36:03;13.80;56.50
7516;DHT22;3799;47.184;8.538;2024-02-14T15:38:31;13.60;57.50
7516;DHT22;3799;47.184;8.538;2024-02-14T15:40:59;13.60;58.60
7516;DHT22;3799;47.184;8.538;2024-02-14T15:43:31;13.40;59.30
7516;DHT22;3799;47.184;8.538;2024-02-14T15:46:00;13.30;59.90
7516;DHT22;3799;47.184;8.538;2024-02-14T15:48:28;13.40;61.50
7516;DHT22;3799;47.184;8.538;2024-02-14T15:50:57;13.20;62.50
7516;DHT22;3799;47.184;8.538;2024-02-14T15:53:26;13.10;64.40
7516;DHT22;3799;47.184;8.538;2024-02-14T15:55:55;13.10;66.60
7516;DHT22;3799;47.184;8.538;2024-02-14T15:58:27;12.90;67.90
7516;DHT22;3799;47.184;8.538;2024-02-14T16:00:54;12.90;69.80
7516;DHT22;3799;47.184;8.538;2024-02-14T16:03:26;12.80;70.70
7516;DHT22;3799;47.184;8.538;2024-02-14T16:05:55;12.80;71.60
7516;DHT22;3799;47.184;8.538;2024-02-14T16:08:23;12.90;72.70
7516;DHT22;3799;47.184;8.538;2024-02-14T16:10:54;12.60;71.60
7516;DHT22;3799;47.184;8.538;2024-02-14T16:13:23;12.50;71.60
7516;DHT22;3799;47.184;8.538;2024-02-14T16:15:53;12.50;72.40
7516;DHT22;3799;47.184;8.538;2024-02-14T16:18:25;12.30;73.00
7516;DHT22;3799;47.184;8.538;2024-02-14T16:20:59;12.40;73.90
7516;DHT22;3799;47.184;8.538;2024-02-14T16:23:28;12.10;74.40
7516;DHT22;3799;47.184;8.538;2024-02-14T16:25:56;12.20;73.60